sensor_id;sensor_type;location;lat;lon;timestamp;P1;durP1;ratioP1;P2;durP2;ratioP2
48871;SDS011;36154;51.674;7.824;2024-02-21T00:01:36;0.38;;;0.38;;
48871;SDS011;36154;51.674;7.824;2024-02-21T00:04:01;0.50;;;0.45;;
48871;SDS011;36154;51.674;7.824;2024-02-21T00:06:26;1.05;;;0.50;;
48871;SDS011;36154;51.674;7.824;2024-02-21T00:08:52;0.30;;;0.30;;
48871;SDS011;36154;51.674;7.824;2024-02-21T00:11:17;0.80;;;0.40;;
48871;SDS011;36154;51.674;7.824;2024-02-21T00:13:42;0.40;;;0.32;;
48871;SDS011;36154;51.674;7.824;2024-02-21T00:16:07;0.63;;;0.47;;
48871;SDS011;36154;51.674;7.824;2024-02-21T00:18:33;0.50;;;0.40;;
48871;SDS011;36154;51.674;7.824;2024-02-21T00:20:58;0.98;;;0.50;;
48871;SDS011;36154;51.674;7.824;2024-02-21T00:23:23;0.50;;;0.40;;
48871;SDS011;36154;51.674;7.824;2024-02-21T00:25:49;0.95;;;0.40;;
48871;SDS011;36154;51.674;7.824;2024-02-21T00:28:14;0.70;;;0.43;;
48871;SDS011;36154;51.674;7.824;2024-02-21T00:30:40;0.60;;;0.40;;
48871;SDS011;36154;51.674;7.824;2024-02-21T00:33:05;0.88;;;0.40;;
48871;SDS011;36154;51.674;7.824;2024-02-21T00:35:30;1.17;;;0.50;;
48871;SDS011;36154;51.674;7.824;2024-02-21T00:37:56;0.50;;;0.50;;
48871;SDS011;36154;51.674;7.824;2024-02-21T00:40:22;0.63;;;0.47;;
48871;SDS011;36154;51.674;7.824;2024-02-21T00:42:48;0.40;;;0.38;;
48871;SDS011;36154;51.674;7.824;2024-02-21T00:45:13;0.63;;;0.28;;
48871;SDS011;36154;51.674;7.824;2024-02-21T00:47:38;0.40;;;0.40;;
48871;SDS011;36154;51.674;7.824;2024-02-21T00:50:03;1.23;;;0.50;;
48871;SDS011;36154;51.674;7.824;2024-02-21T00:52:29;0.57;;;0.35;;
48871;SDS011;36154;51.674;7.824;2024-02-21T00:54:54;0.70;;;0.60;;
48871;SDS011;36154;51.674;7.824;2024-02-21T00:57:19;0.40;;;0.40;;
48871;SDS011;36154;51.674;7.824;2024-02-21T00:59:45;0.70;;;0.40;;
48871;SDS011;36154;51.674;7.824;2024-02-21T01:02:10;0.47;;;0.47;;
48871;SDS011;36154;51.674;7.824;2024-02-21T01:04:35;0.80;;;0.50;;
48871;SDS011;36154;51.674;7.824;2024-02-21T01:07:01;0.55;;;0.35;;
48871;SDS011;36154;51.674;7.824;2024-02-21T01:09:26;1.40;;;0.40;;
48871;SDS011;36154;51.674;7.824;2024-02-21T01:11:52;0.60;;;0.35;;
48871;SDS011;36154;51.674;7.824;2024-02-21T01:14:17;0.50;;;0.50;;
48871;SDS011;36154;51.674;7.824;2024-02-21T01:16:43;0.40;;;0.40;;
48871;SDS011;36154;51.674;7.824;2024-02-21T01:19:08;0.60;;;0.40;;
48871;SDS011;36154;51.674;7.824;2024-02-21T01:21:33;0.53;;;0.53;;
48871;SDS011;36154;51.674;7.824;2024-02-21T01:23:58;0.40;;;0.38;;
48871;SDS011;36154;51.674;7.824;2024-02-21T01:26:24;0.50;;;0.50;;
48871;SDS011;36154;51.674;7.824;2024-02-21T01:28:49;0.50;;;0.50;;
48871;SDS011;36154;51.674;7.824;2024-02-21T01:31:14;0.93;;;0.70;;
48871;SDS011;36154;51.674;7.824;2024-02-21T01:33:40;0.50;;;0.50;;
48871;SDS011;36154;51.674;7.824;2024-02-21T01:36:06;0.57;;;0.40;;
48871;SDS011;36154;51.674;7.824;2024-02-21T01:38:34;0.30;;;0.30;;
48871;SDS011;36154;51.674;7.824;2024-02-21T01:40:59;0.38;;;0.38;;
48871;SDS011;36154;51.674;7.824;2024-02-21T01:43:25;0.30;;;0.30;;
48871;SDS011;36154;51.674;7.824;2024-02-21T01:45:50;0.32;;;0.32;;
48871;SDS011;36154;51.674;7.824;2024-02-21T01:48:18;0.68;;;0.50;;
48871;SDS011;36154;51.674;7.824;2024-02-21T01:50:44;0.45;;;0.45;;
48871;SDS011;36154;51.674;7.824;2024-02-21T01:53:10;0.40;;;0.40;;
48871;SDS011;36154;51.674;7.824;2024-02-21T01:55:42;0.50;;;0.40;;
48871;SDS011;36154;51.674;7.824;2024-02-21T01:58:08;0.82;;;0.35;;
48871;SDS011;36154;51.674;7.824;2024-02-21T02:00:33;0.73;;;0.40;;
48871;SDS011;36154;51.674;7.824;2024-02-21T02:02:59;0.65;;;0.50;;
48871;SDS011;36154;51.674;7.824;2024-02-21T02:05:24;0.40;;;0.40;;
48871;SDS011;36154;51.674;7.824;2024-02-21T02:07:49;0.43;;;0.40;;
48871;SDS011;36154;51.674;7.824;2024-02-21T02:10:14;0.30;;;0.30;;
48871;SDS011;36154;51.674;7.824;2024-02-21T02:12:40;0.40;;;0.40;;
48871;SDS011;36154;51.674;7.824;2024-02-21T02:15:05;0.40;;;0.40;;
48871;SDS011;36154;51.674;7.824;2024-02-21T02:17:31;0.73;;;0.50;;
48871;SDS011;36154;51.674;7.824;2024-02-21T02:19:56;0.20;;;0.20;;
48871;SDS011;36154;51.674;7.824;2024-02-21T02:22:22;1.17;;;0.50;;
48871;SDS011;36154;51.674;7.824;2024-02-21T02:24:49;0.40;;;0.40;;
48871;SDS011;36154;51.674;7.824;2024-02-21T02:27:15;0.40;;;0.40;;
48871;SDS011;36154;51.674;7.824;2024-02-21T02:29:40;0.50;;;0.35;;
48871;SDS011;36154;51.674;7.824;2024-02-21T02:32:05;0.40;;;0.40;;
48871;SDS011;36154;51.674;7.824;2024-02-21T02:34:31;0.50;;;0.50;;
48871;SDS011;36154;51.674;7.824;2024-02-21T02:36:56;0.40;;;0.40;;
48871;SDS011;36154;51.674;7.824;2024-02-21T02:39:21;1.10;;;0.60;;
48871;SDS011;36154;51.674;7.824;2024-02-21T02:41:46;0.38;;;0.32;;
48871;SDS011;36154;51.674;7.824;2024-02-21T02:44:12;0.43;;;0.40;;
48871;SDS011;36154;51.674;7.824;2024-02-21T02:46:39;0.63;;;0.45;;
48871;SDS011;36154;51.674;7.824;2024-02-21T02:49:06;0.95;;;0.55;;
48871;SDS011;36154;51.674;7.824;2024-02-21T02:51:31;0.47;;;0.47;;
48871;SDS011;36154;51.674;7.824;2024-02-21T02:53:57;0.40;;;0.40;;
48871;SDS011;36154;51.674;7.824;2024-02-21T02:56:22;0.40;;;0.40;;
48871;SDS011;36154;51.674;7.824;2024-02-21T02:58:47;0.50;;;0.50;;
48871;SDS011;36154;51.674;7.824;2024-02-21T03:01:13;0.40;;;0.40;;
48871;SDS011;36154;51.674;7.824;2024-02-21T03:03:38;0.40;;;0.30;;
48871;SDS011;36154;51.674;7.824;2024-02-21T03:06:04;0.85;;;0.57;;
48871;SDS011;36154;51.674;7.824;2024-02-21T03:08:29;0.50;;;0.50;;
48871;SDS011;36154;51.674;7.824;2024-02-21T03:10:54;0.77;;;0.50;;
48871;SDS011;36154;51.674;7.824;2024-02-21T03:13:20;0.50;;;0.40;;
48871;SDS011;36154;51.674;7.824;2024-02-21T03:15:45;0.90;;;0.57;;
48871;SDS011;36154;51.674;7.824;2024-02-21T03:18:10;0.40;;;0.37;;
48871;SDS011;36154;51.674;7.824;2024-02-21T03:20:35;0.40;;;0.40;;
48871;SDS011;36154;51.674;7.824;2024-02-21T03:23:01;0.30;;;0.30;;
48871;SDS011;36154;51.674;7.824;2024-02-21T03:25:26;0.38;;;0.30;;
48871;SDS011;36154;51.674;7.824;2024-02-21T03:27:51;0.40;;;0.40;;
48871;SDS011;36154;51.674;7.824;2024-02-21T03:30:17;0.40;;;0.40;;
48871;SDS011;36154;51.674;7.824;2024-02-21T03:32:42;0.65;;;0.40;;
48871;SDS011;36154;51.674;7.824;2024-02-21T03:35:07;0.63;;;0.47;;
48871;SDS011;36154;51.674;7.824;2024-02-21T03:37:32;0.50;;;0.50;;
48871;SDS011;36154;51.674;7.824;2024-02-21T03:39:58;0.35;;;0.35;;
48871;SDS011;36154;51.674;7.824;2024-02-21T03:42:23;0.80;;;0.40;;
48871;SDS011;36154;51.674;7.824;2024-02-21T03:44:48;0.35;;;0.35;;
48871;SDS011;36154;51.674;7.824;2024-02-21T03:47:13;0.30;;;0.30;;
48871;SDS011;36154;51.674;7.824;2024-02-21T03:49:39;0.35;;;0.35;;
48871;SDS011;36154;51.674;7.824;2024-02-21T03:52:04;0.50;;;0.45;;
48871;SDS011;36154;51.674;7.824;2024-02-21T03:54:29;0.45;;;0.45;;
48871;SDS011;36154;51.674;7.824;2024-02-21T03:56:55;0.95;;;0.70;;
48871;SDS011;36154;51.674;7.824;2024-02-21T03:59:20;0.35;;;0.32;;
48871;SDS011;36154;51.674;7.824;2024-02-21T04:01:47;0.57;;;0.40;;
48871;SDS011;36154;51.674;7.824;2024-02-21T04:04:17;0.73;;;0.50;;
48871;SDS011;36154;51.674;7.824;2024-02-21T04:06:45;0.40;;;0.30;;
48871;SDS011;36154;51.674;7.824;2024-02-21T04:09:14;0.35;;;0.35;;
48871;SDS011;36154;51.674;7.824;2024-02-21T04:11:40;0.35;;;0.35;;
48871;SDS011;36154;51.674;7.824;2024-02-21T04:14:05;0.30;;;0.30;;
48871;SDS011;36154;51.674;7.824;2024-02-21T04:16:30;0.40;;;0.40;;
48871;SDS011;36154;51.674;7.824;2024-02-21T04:18:55;0.40;;;0.40;;
48871;SDS011;36154;51.674;7.824;2024-02-21T04:21:21;0.30;;;0.30;;
48871;SDS011;36154;51.674;7.824;2024-02-21T04:23:46;0.93;;;0.40;;
48871;SDS011;36154;51.674;7.824;2024-02-21T04:26:11;0.40;;;0.40;;
48871;SDS011;36154;51.674;7.824;2024-02-21T04:28:36;0.38;;;0.38;;
48871;SDS011;36154;51.674;7.824;2024-02-21T04:31:03;0.63;;;0.50;;
48871;SDS011;36154;51.674;7.824;2024-02-21T04:33:28;0.40;;;0.38;;
48871;SDS011;36154;51.674;7.824;2024-02-21T04:35:53;0.52;;;0.40;;
48871;SDS011;36154;51.674;7.824;2024-02-21T04:38:20;0.52;;;0.40;;
48871;SDS011;36154;51.674;7.824;2024-02-21T04:40:45;0.45;;;0.45;;
48871;SDS011;36154;51.674;7.824;2024-02-21T04:43:10;0.30;;;0.30;;
48871;SDS011;36154;51.674;7.824;2024-02-21T04:45:36;0.43;;;0.43;;
48871;SDS011;36154;51.674;7.824;2024-02-21T04:48:01;0.30;;;0.30;;
48871;SDS011;36154;51.674;7.824;2024-02-21T04:50:26;1.40;;;0.47;;
48871;SDS011;36154;51.674;7.824;2024-02-21T04:52:52;0.50;;;0.35;;
48871;SDS011;36154;51.674;7.824;2024-02-21T04:55:17;0.50;;;0.50;;
48871;SDS011;36154;51.674;7.824;2024-02-21T04:57:43;0.70;;;0.50;;
48871;SDS011;36154;51.674;7.824;2024-02-21T05:00:08;0.30;;;0.30;;
48871;SDS011;36154;51.674;7.824;2024-02-21T05:02:34;0.50;;;0.30;;
48871;SDS011;36154;51.674;7.824;2024-02-21T05:04:59;0.40;;;0.30;;
48871;SDS011;36154;51.674;7.824;2024-02-21T05:07:24;0.40;;;0.30;;
48871;SDS011;36154;51.674;7.824;2024-02-21T05:09:50;0.30;;;0.30;;
48871;SDS011;36154;51.674;7.824;2024-02-21T05:12:15;0.32;;;0.32;;
48871;SDS011;36154;51.674;7.824;2024-02-21T05:14:41;0.38;;;0.38;;
48871;SDS011;36154;51.674;7.824;2024-02-21T05:17:06;0.43;;;0.43;;
48871;SDS011;36154;51.674;7.824;2024-02-21T05:19:31;2.17;;;0.50;;
48871;SDS011;36154;51.674;7.824;2024-02-21T05:21:58;0.90;;;0.40;;
48871;SDS011;36154;51.674;7.824;2024-02-21T05:24:24;0.22;;;0.22;;
48871;SDS011;36154;51.674;7.824;2024-02-21T05:26:49;0.30;;;0.30;;
48871;SDS011;36154;51.674;7.824;2024-02-21T05:29:14;0.30;;;0.30;;
48871;SDS011;36154;51.674;7.824;2024-02-21T05:31:55;0.75;;;0.40;;
48871;SDS011;36154;51.674;7.824;2024-02-21T05:34:22;0.50;;;0.50;;
48871;SDS011;36154;51.674;7.824;2024-02-21T05:36:47;0.30;;;0.30;;
48871;SDS011;36154;51.674;7.824;2024-02-21T05:39:14;0.25;;;0.25;;
48871;SDS011;36154;51.674;7.824;2024-02-21T05:41:40;0.60;;;0.40;;
48871;SDS011;36154;51.674;7.824;2024-02-21T05:44:05;0.35;;;0.35;;
48871;SDS011;36154;51.674;7.824;2024-02-21T05:46:30;0.38;;;0.30;;
48871;SDS011;36154;51.674;7.824;2024-02-21T05:48:56;0.40;;;0.40;;
48871;SDS011;36154;51.674;7.824;2024-02-21T05:51:21;0.57;;;0.30;;
48871;SDS011;36154;51.674;7.824;2024-02-21T05:53:46;0.47;;;0.47;;
48871;SDS011;36154;51.674;7.824;2024-02-21T05:56:12;0.70;;;0.40;;
48871;SDS011;36154;51.674;7.824;2024-02-21T05:58:38;0.52;;;0.40;;
48871;SDS011;36154;51.674;7.824;2024-02-21T06:01:03;0.60;;;0.50;;
48871;SDS011;36154;51.674;7.824;2024-02-21T06:03:29;0.50;;;0.30;;
48871;SDS011;36154;51.674;7.824;2024-02-21T06:05:55;0.40;;;0.40;;
48871;SDS011;36154;51.674;7.824;2024-02-21T06:08:20;0.30;;;0.30;;
48871;SDS011;36154;51.674;7.824;2024-02-21T06:10:45;0.43;;;0.30;;
48871;SDS011;36154;51.674;7.824;2024-02-21T06:13:11;0.50;;;0.40;;
48871;SDS011;36154;51.674;7.824;2024-02-21T06:15:36;0.30;;;0.30;;
48871;SDS011;36154;51.674;7.824;2024-02-21T06:18:01;0.40;;;0.38;;
48871;SDS011;36154;51.674;7.824;2024-02-21T06:20:27;0.30;;;0.30;;
48871;SDS011;36154;51.674;7.824;2024-02-21T06:22:52;0.38;;;0.38;;
48871;SDS011;36154;51.674;7.824;2024-02-21T06:25:18;0.30;;;0.30;;
48871;SDS011;36154;51.674;7.824;2024-02-21T06:27:43;0.70;;;0.50;;
48871;SDS011;36154;51.674;7.824;2024-02-21T06:30:09;0.40;;;0.40;;
48871;SDS011;36154;51.674;7.824;2024-02-21T06:32:34;0.63;;;0.32;;
48871;SDS011;36154;51.674;7.824;2024-02-21T06:35:00;0.40;;;0.40;;
48871;SDS011;36154;51.674;7.824;2024-02-21T06:37:26;2.42;;;0.60;;
48871;SDS011;36154;51.674;7.824;2024-02-21T06:39:52;0.40;;;0.40;;
48871;SDS011;36154;51.674;7.824;2024-02-21T06:42:17;1.38;;;0.30;;
48871;SDS011;36154;51.674;7.824;2024-02-21T06:44:43;0.40;;;0.40;;
48871;SDS011;36154;51.674;7.824;2024-02-21T06:47:09;2.92;;;0.47;;
48871;SDS011;36154;51.674;7.824;2024-02-21T06:49:34;0.70;;;0.50;;
48871;SDS011;36154;51.674;7.824;2024-02-21T06:52:02;0.40;;;0.30;;
48871;SDS011;36154;51.674;7.824;2024-02-21T06:54:28;2.05;;;0.32;;
48871;SDS011;36154;51.674;7.824;2024-02-21T06:56:53;0.40;;;0.30;;
48871;SDS011;36154;51.674;7.824;2024-02-21T06:59:18;0.88;;;0.60;;
48871;SDS011;36154;51.674;7.824;2024-02-21T07:01:47;0.63;;;0.40;;
48871;SDS011;36154;51.674;7.824;2024-02-21T07:04:14;0.85;;;0.30;;
48871;SDS011;36154;51.674;7.824;2024-02-21T07:06:39;0.80;;;0.30;;
48871;SDS011;36154;51.674;7.824;2024-02-21T07:09:05;0.30;;;0.30;;
48871;SDS011;36154;51.674;7.824;2024-02-21T07:11:30;0.40;;;0.40;;
48871;SDS011;36154;51.674;7.824;2024-02-21T07:13:55;0.60;;;0.20;;
48871;SDS011;36154;51.674;7.824;2024-02-21T07:16:20;1.38;;;0.20;;
48871;SDS011;36154;51.674;7.824;2024-02-21T07:18:46;2.35;;;0.35;;
48871;SDS011;36154;51.674;7.824;2024-02-21T07:21:11;0.40;;;0.30;;
48871;SDS011;36154;51.674;7.824;2024-02-21T07:23:40;0.30;;;0.30;;
48871;SDS011;36154;51.674;7.824;2024-02-21T07:26:06;0.73;;;0.30;;
48871;SDS011;36154;51.674;7.824;2024-02-21T07:28:31;0.30;;;0.30;;
48871;SDS011;36154;51.674;7.824;2024-02-21T07:30:58;1.17;;;0.30;;
48871;SDS011;36154;51.674;7.824;2024-02-21T07:33:24;0.50;;;0.28;;
48871;SDS011;36154;51.674;7.824;2024-02-21T07:35:49;0.30;;;0.30;;
48871;SDS011;36154;51.674;7.824;2024-02-21T07:38:14;0.55;;;0.30;;
48871;SDS011;36154;51.674;7.824;2024-02-21T07:40:40;0.38;;;0.32;;
48871;SDS011;36154;51.674;7.824;2024-02-21T07:43:05;0.40;;;0.30;;
48871;SDS011;36154;51.674;7.824;2024-02-21T07:45:30;0.45;;;0.30;;
48871;SDS011;36154;51.674;7.824;2024-02-21T07:47:56;0.45;;;0.30;;
48871;SDS011;36154;51.674;7.824;2024-02-21T07:50:21;0.30;;;0.30;;
48871;SDS011;36154;51.674;7.824;2024-02-21T07:52:46;0.70;;;0.50;;
48871;SDS011;36154;51.674;7.824;2024-02-21T07:55:11;0.20;;;0.20;;
48871;SDS011;36154;51.674;7.824;2024-02-21T07:57:37;1.00;;;0.20;;
48871;SDS011;36154;51.674;7.824;2024-02-21T08:00:02;0.35;;;0.30;;
48871;SDS011;36154;51.674;7.824;2024-02-21T08:02:34;0.45;;;0.40;;
48871;SDS011;36154;51.674;7.824;2024-02-21T08:04:59;1.42;;;0.63;;
48871;SDS011;36154;51.674;7.824;2024-02-21T08:07:25;0.50;;;0.50;;
48871;SDS011;36154;51.674;7.824;2024-02-21T08:09:50;0.40;;;0.40;;
48871;SDS011;36154;51.674;7.824;2024-02-21T08:12:15;0.30;;;0.30;;
48871;SDS011;36154;51.674;7.824;2024-02-21T08:14:40;0.57;;;0.40;;
48871;SDS011;36154;51.674;7.824;2024-02-21T08:17:06;0.47;;;0.47;;
48871;SDS011;36154;51.674;7.824;2024-02-21T08:19:31;0.30;;;0.30;;
48871;SDS011;36154;51.674;7.824;2024-02-21T08:21:56;0.40;;;0.40;;
48871;SDS011;36154;51.674;7.824;2024-02-21T08:24:22;0.32;;;0.32;;
48871;SDS011;36154;51.674;7.824;2024-02-21T08:26:47;0.50;;;0.40;;
48871;SDS011;36154;51.674;7.824;2024-02-21T08:29:13;0.57;;;0.50;;
48871;SDS011;36154;51.674;7.824;2024-02-21T08:31:39;0.25;;;0.25;;
48871;SDS011;36154;51.674;7.824;2024-02-21T08:34:04;0.30;;;0.30;;
48871;SDS011;36154;51.674;7.824;2024-02-21T08:36:33;0.40;;;0.38;;
48871;SDS011;36154;51.674;7.824;2024-02-21T08:38:59;0.30;;;0.30;;
48871;SDS011;36154;51.674;7.824;2024-02-21T08:41:25;0.30;;;0.30;;
48871;SDS011;36154;51.674;7.824;2024-02-21T08:43:51;0.30;;;0.30;;
48871;SDS011;36154;51.674;7.824;2024-02-21T08:46:18;0.68;;;0.40;;
48871;SDS011;36154;51.674;7.824;2024-02-21T08:48:44;0.80;;;0.38;;
48871;SDS011;36154;51.674;7.824;2024-02-21T08:51:13;0.20;;;0.20;;
48871;SDS011;36154;51.674;7.824;2024-02-21T08:53:39;0.47;;;0.47;;
48871;SDS011;36154;51.674;7.824;2024-02-21T08:56:04;0.20;;;0.20;;
48871;SDS011;36154;51.674;7.824;2024-02-21T08:58:30;0.20;;;0.20;;
48871;SDS011;36154;51.674;7.824;2024-02-21T09:00:56;0.20;;;0.20;;
48871;SDS011;36154;51.674;7.824;2024-02-21T09:03:21;0.35;;;0.30;;
48871;SDS011;36154;51.674;7.824;2024-02-21T09:05:47;0.28;;;0.20;;
48871;SDS011;36154;51.674;7.824;2024-02-21T09:08:12;0.28;;;0.20;;
48871;SDS011;36154;51.674;7.824;2024-02-21T09:10:38;0.30;;;0.30;;
48871;SDS011;36154;51.674;7.824;2024-02-21T09:13:04;0.20;;;0.20;;
48871;SDS011;36154;51.674;7.824;2024-02-21T09:15:30;0.20;;;0.20;;
48871;SDS011;36154;51.674;7.824;2024-02-21T09:17:55;0.38;;;0.28;;
48871;SDS011;36154;51.674;7.824;2024-02-21T09:20:20;0.30;;;0.30;;
48871;SDS011;36154;51.674;7.824;2024-02-21T09:22:46;0.38;;;0.38;;
48871;SDS011;36154;51.674;7.824;2024-02-21T09:25:11;0.40;;;0.22;;
48871;SDS011;36154;51.674;7.824;2024-02-21T09:27:37;1.02;;;0.50;;
48871;SDS011;36154;51.674;7.824;2024-02-21T09:30:04;0.50;;;0.40;;
48871;SDS011;36154;51.674;7.824;2024-02-21T09:32:30;0.50;;;0.43;;
48871;SDS011;36154;51.674;7.824;2024-02-21T09:34:57;0.40;;;0.40;;
48871;SDS011;36154;51.674;7.824;2024-02-21T09:37:22;0.37;;;0.37;;
48871;SDS011;36154;51.674;7.824;2024-02-21T09:39:47;1.75;;;0.22;;
48871;SDS011;36154;51.674;7.824;2024-02-21T09:42:13;0.30;;;0.30;;
48871;SDS011;36154;51.674;7.824;2024-02-21T09:44:43;0.75;;;0.40;;
48871;SDS011;36154;51.674;7.824;2024-02-21T09:47:12;0.38;;;0.38;;
48871;SDS011;36154;51.674;7.824;2024-02-21T09:49:47;0.85;;;0.35;;
48871;SDS011;36154;51.674;7.824;2024-02-21T09:52:12;0.28;;;0.28;;
48871;SDS011;36154;51.674;7.824;2024-02-21T09:54:40;2.25;;;0.40;;
48871;SDS011;36154;51.674;7.824;2024-02-21T09:57:10;1.30;;;0.40;;
48871;SDS011;36154;51.674;7.824;2024-02-21T09:59:35;0.65;;;0.40;;
48871;SDS011;36154;51.674;7.824;2024-02-21T10:02:00;0.60;;;0.40;;
48871;SDS011;36154;51.674;7.824;2024-02-21T10:04:26;0.77;;;0.40;;
48871;SDS011;36154;51.674;7.824;2024-02-21T10:06:53;0.57;;;0.40;;
48871;SDS011;36154;51.674;7.824;2024-02-21T10:09:25;0.47;;;0.32;;
48871;SDS011;36154;51.674;7.824;2024-02-21T10:11:54;0.82;;;0.40;;
48871;SDS011;36154;51.674;7.824;2024-02-21T10:14:21;0.70;;;0.50;;
48871;SDS011;36154;51.674;7.824;2024-02-21T10:16:56;2.20;;;0.63;;
48871;SDS011;36154;51.674;7.824;2024-02-21T10:19:25;1.20;;;0.70;;
48871;SDS011;36154;51.674;7.824;2024-02-21T10:24:29;3.50;;;1.77;;
48871;SDS011;36154;51.674;7.824;2024-02-21T10:26:58;3.17;;;2.00;;
48871;SDS011;36154;51.674;7.824;2024-02-21T10:29:24;2.72;;;1.92;;
48871;SDS011;36154;51.674;7.824;2024-02-21T10:31:50;2.10;;;1.90;;
48871;SDS011;36154;51.674;7.824;2024-02-21T10:34:16;4.53;;;1.85;;
48871;SDS011;36154;51.674;7.824;2024-02-21T10:36:42;1.58;;;1.48;;
48871;SDS011;36154;51.674;7.824;2024-02-21T10:39:08;1.88;;;1.58;;
48871;SDS011;36154;51.674;7.824;2024-02-21T10:41:34;4.15;;;1.95;;
48871;SDS011;36154;51.674;7.824;2024-02-21T10:44:01;3.40;;;1.25;;
48871;SDS011;36154;51.674;7.824;2024-02-21T10:46:30;3.03;;;1.65;;
48871;SDS011;36154;51.674;7.824;2024-02-21T10:51:43;2.70;;;1.42;;
48871;SDS011;36154;51.674;7.824;2024-02-21T10:57:10;2.58;;;1.30;;
48871;SDS011;36154;51.674;7.824;2024-02-21T10:59:37;2.47;;;1.30;;
48871;SDS011;36154;51.674;7.824;2024-02-21T11:02:05;1.38;;;1.17;;
48871;SDS011;36154;51.674;7.824;2024-02-21T11:04:30;4.03;;;1.55;;
48871;SDS011;36154;51.674;7.824;2024-02-21T11:06:56;2.13;;;1.45;;
48871;SDS011;36154;51.674;7.824;2024-02-21T11:09:31;3.75;;;1.75;;
48871;SDS011;36154;51.674;7.824;2024-02-21T11:11:58;4.50;;;1.95;;
48871;SDS011;36154;51.674;7.824;2024-02-21T11:14:26;3.80;;;1.90;;
48871;SDS011;36154;51.674;7.824;2024-02-21T11:16:52;4.28;;;1.35;;
48871;SDS011;36154;51.674;7.824;2024-02-21T11:19:21;4.78;;;1.83;;
48871;SDS011;36154;51.674;7.824;2024-02-21T11:21:48;4.95;;;1.80;;
48871;SDS011;36154;51.674;7.824;2024-02-21T11:24:36;3.78;;;1.90;;
48871;SDS011;36154;51.674;7.824;2024-02-21T11:27:12;4.10;;;1.60;;
48871;SDS011;36154;51.674;7.824;2024-02-21T11:29:45;4.40;;;1.60;;
48871;SDS011;36154;51.674;7.824;2024-02-21T11:32:15;3.97;;;2.33;;
48871;SDS011;36154;51.674;7.824;2024-02-21T11:34:53;5.65;;;2.75;;
48871;SDS011;36154;51.674;7.824;2024-02-21T11:37:18;6.75;;;2.90;;
48871;SDS011;36154;51.674;7.824;2024-02-21T11:39:44;11.10;;;3.50;;
48871;SDS011;36154;51.674;7.824;2024-02-21T11:42:09;11.45;;;3.65;;
48871;SDS011;36154;51.674;7.824;2024-02-21T11:44:35;8.68;;;3.33;;
48871;SDS011;36154;51.674;7.824;2024-02-21T11:47:03;8.30;;;3.67;;
48871;SDS011;36154;51.674;7.824;2024-02-21T11:49:29;12.75;;;3.72;;
48871;SDS011;36154;51.674;7.824;2024-02-21T11:52:02;9.57;;;3.35;;
48871;SDS011;36154;51.674;7.824;2024-02-21T11:54:31;5.90;;;2.90;;
48871;SDS011;36154;51.674;7.824;2024-02-21T11:56:57;9.77;;;2.78;;
48871;SDS011;36154;51.674;7.824;2024-02-21T11:59:23;6.35;;;2.78;;
48871;SDS011;36154;51.674;7.824;2024-02-21T12:01:49;7.07;;;2.97;;
48871;SDS011;36154;51.674;7.824;2024-02-21T12:04:16;4.97;;;2.47;;
48871;SDS011;36154;51.674;7.824;2024-02-21T12:06:44;6.45;;;2.88;;
48871;SDS011;36154;51.674;7.824;2024-02-21T12:09:13;4.65;;;2.42;;
48871;SDS011;36154;51.674;7.824;2024-02-21T12:11:40;5.00;;;2.33;;
48871;SDS011;36154;51.674;7.824;2024-02-21T12:14:05;5.88;;;2.10;;
48871;SDS011;36154;51.674;7.824;2024-02-21T12:16:31;6.57;;;2.58;;
48871;SDS011;36154;51.674;7.824;2024-02-21T12:18:57;4.97;;;2.30;;
48871;SDS011;36154;51.674;7.824;2024-02-21T12:21:26;6.63;;;2.30;;
48871;SDS011;36154;51.674;7.824;2024-02-21T12:23:54;4.50;;;2.00;;
48871;SDS011;36154;51.674;7.824;2024-02-21T12:26:20;5.07;;;2.42;;
48871;SDS011;36154;51.674;7.824;2024-02-21T12:28:45;3.45;;;2.00;;
48871;SDS011;36154;51.674;7.824;2024-02-21T12:31:11;3.35;;;1.85;;
48871;SDS011;36154;51.674;7.824;2024-02-21T12:33:36;4.03;;;2.20;;
48871;SDS011;36154;51.674;7.824;2024-02-21T12:36:02;3.53;;;2.17;;
48871;SDS011;36154;51.674;7.824;2024-02-21T12:38:28;5.13;;;1.65;;
48871;SDS011;36154;51.674;7.824;2024-02-21T12:40:54;5.18;;;2.05;;
48871;SDS011;36154;51.674;7.824;2024-02-21T12:43:19;3.45;;;1.70;;
48871;SDS011;36154;51.674;7.824;2024-02-21T12:45:45;3.83;;;1.75;;
48871;SDS011;36154;51.674;7.824;2024-02-21T12:48:10;3.95;;;1.38;;
48871;SDS011;36154;51.674;7.824;2024-02-21T12:50:35;1.88;;;1.25;;
48871;SDS011;36154;51.674;7.824;2024-02-21T12:53:01;2.65;;;1.50;;
48871;SDS011;36154;51.674;7.824;2024-02-21T12:55:26;2.78;;;1.33;;
48871;SDS011;36154;51.674;7.824;2024-02-21T12:57:52;2.50;;;1.30;;
48871;SDS011;36154;51.674;7.824;2024-02-21T13:00:17;2.15;;;1.30;;
48871;SDS011;36154;51.674;7.824;2024-02-21T13:02:42;3.33;;;1.30;;
48871;SDS011;36154;51.674;7.824;2024-02-21T13:05:08;3.15;;;1.45;;
48871;SDS011;36154;51.674;7.824;2024-02-21T13:07:33;1.75;;;1.02;;
48871;SDS011;36154;51.674;7.824;2024-02-21T13:09:59;2.00;;;1.45;;
48871;SDS011;36154;51.674;7.824;2024-02-21T13:12:25;2.13;;;1.17;;
48871;SDS011;36154;51.674;7.824;2024-02-21T13:14:52;2.75;;;1.30;;
48871;SDS011;36154;51.674;7.824;2024-02-21T13:17:17;2.17;;;1.02;;
48871;SDS011;36154;51.674;7.824;2024-02-21T13:19:43;4.75;;;1.40;;
48871;SDS011;36154;51.674;7.824;2024-02-21T13:22:08;1.10;;;0.82;;
48871;SDS011;36154;51.674;7.824;2024-02-21T13:24:34;1.77;;;0.93;;
48871;SDS011;36154;51.674;7.824;2024-02-21T13:26:59;2.55;;;1.25;;
48871;SDS011;36154;51.674;7.824;2024-02-21T13:29:25;0.93;;;0.90;;
48871;SDS011;36154;51.674;7.824;2024-02-21T13:31:50;2.63;;;1.13;;
48871;SDS011;36154;51.674;7.824;2024-02-21T13:34:15;0.90;;;0.90;;
48871;SDS011;36154;51.674;7.824;2024-02-21T13:36:42;1.10;;;0.98;;
48871;SDS011;36154;51.674;7.824;2024-02-21T13:39:07;2.40;;;0.95;;
48871;SDS011;36154;51.674;7.824;2024-02-21T13:41:40;1.50;;;1.00;;
48871;SDS011;36154;51.674;7.824;2024-02-21T13:44:07;1.63;;;0.75;;
48871;SDS011;36154;51.674;7.824;2024-02-21T13:46:32;2.83;;;1.13;;
48871;SDS011;36154;51.674;7.824;2024-02-21T13:49:02;1.58;;;0.88;;
48871;SDS011;36154;51.674;7.824;2024-02-21T13:51:35;1.10;;;0.70;;
48871;SDS011;36154;51.674;7.824;2024-02-21T13:54:03;2.65;;;0.90;;
48871;SDS011;36154;51.674;7.824;2024-02-21T13:56:30;1.38;;;0.80;;
48871;SDS011;36154;51.674;7.824;2024-02-21T13:58:57;2.05;;;0.98;;
48871;SDS011;36154;51.674;7.824;2024-02-21T14:01:23;1.65;;;0.90;;
48871;SDS011;36154;51.674;7.824;2024-02-21T14:03:48;1.92;;;0.80;;
48871;SDS011;36154;51.674;7.824;2024-02-21T14:06:13;2.05;;;0.82;;
48871;SDS011;36154;51.674;7.824;2024-02-21T14:08:39;0.60;;;0.60;;
48871;SDS011;36154;51.674;7.824;2024-02-21T14:11:05;1.77;;;0.88;;
48871;SDS011;36154;51.674;7.824;2024-02-21T14:13:31;0.70;;;0.70;;
48871;SDS011;36154;51.674;7.824;2024-02-21T14:15:56;2.38;;;0.68;;
48871;SDS011;36154;51.674;7.824;2024-02-21T14:18:22;1.27;;;0.70;;
48871;SDS011;36154;51.674;7.824;2024-02-21T14:20:47;1.40;;;0.95;;
48871;SDS011;36154;51.674;7.824;2024-02-21T14:23:13;1.10;;;0.80;;
48871;SDS011;36154;51.674;7.824;2024-02-21T14:25:38;2.00;;;0.90;;
48871;SDS011;36154;51.674;7.824;2024-02-21T14:28:04;2.45;;;0.80;;
48871;SDS011;36154;51.674;7.824;2024-02-21T14:30:30;1.40;;;0.75;;
48871;SDS011;36154;51.674;7.824;2024-02-21T14:32:55;0.82;;;0.60;;
48871;SDS011;36154;51.674;7.824;2024-02-21T14:35:21;2.67;;;0.80;;
48871;SDS011;36154;51.674;7.824;2024-02-21T14:37:46;1.05;;;0.80;;
48871;SDS011;36154;51.674;7.824;2024-02-21T14:40:13;1.17;;;0.60;;
48871;SDS011;36154;51.674;7.824;2024-02-21T14:42:39;1.10;;;0.70;;
48871;SDS011;36154;51.674;7.824;2024-02-21T14:45:07;1.80;;;0.82;;
48871;SDS011;36154;51.674;7.824;2024-02-21T14:47:32;0.75;;;0.60;;
48871;SDS011;36154;51.674;7.824;2024-02-21T14:49:58;1.67;;;0.90;;